Bentonville, AR

3:46 PM CDT on September 20, 2014 (GMT -0500)
Cross Creek | Change Station
CLOSE
Current Station
Personal Weather Station
Location: Bentonville, AR
Elevation: 1230 ft
Nearby Weather Stations

Elev 1230 ft 36.38 °N, 94.24 °W | Updated 127 days ago

Partly Cloudy
Partly Cloudy
84 °F
Feels Like 86 °F
N
8
Wind Variable Wind from SSW
Gusts 8 mph

Today
High -- | Low -- °F
--% Chance of Precip.
Yesterday
High -- | Low -- °F
Precip. -- in
7:03 AM 7:16 PM
Waning Crescent, 10% visible
Pressure 30.05 in
Visibility 10.0 miles
Clouds Scattered Clouds 3800 ft
Mostly Cloudy 4500 ft
Heat Index 86 °F
Dew Point 68 °F
Humidity 58%
Rainfall 0.00 in
Snow Depth Not available.
UV 3 out of 12
Pollen 10.10 out of 12
Air Quality Not available.
Flu Activity Not available.
METAR KVBT 202035Z AUTO 22005KT 10SM SCT038 BKN045 28/19 A3005 RMK AO1

More Conditions Fewer Conditions

Pressure 30.05 in
Visibility 10.0 miles
Clouds Scattered Clouds 3800 ft
Mostly Cloudy 4500 ft
Heat Index 86 °F
Dew Point 68 °F
Humidity 58%
Rainfall 0.00 in
Snow Depth Not available.
UV 3 out of 12
Pollen 10.10 out of 12
Air Quality Not available.
Flu Activity Not available.
METAR KVBT 202035Z AUTO 22005KT 10SM SCT038 BKN045 28/19 A3005 RMK AO1

More Conditions Fewer Conditions

10-Day Weather Forecast

Almanac

Astronomy

Sep. 20, 2014 Rise Set
Actual Time 7:03 AM CDT 7:16 PM CDT
Civil Twilight 6:37 AM CDT 7:42 PM CDT
Nautical Twilight 6:07 AM CDT 8:12 PM CDT
Astronomical Twilight 5:36 AM CDT 8:43 PM CDT
Moon 3:47 AM CDT 5:16 PM CDT
Length of Visible Light 13h 04m
Length of Day
12h 13m
Tomorrow will be 2m 18s shorter.
Waning Crescent, 10% of the Moon is Illuminated
Today
Waning Crescent
Sep 24
New
Oct 1
First Quarter
Oct 8
Full
Oct 15
Last Quarter

Today's Extremes

State Highs State Lows

Community

WunderPhotos

Upload Photos

1,754,945 photos uploaded!

WunderBlogs® & News

Nearby

Snow Depth

Station Depth Elevation
No new snow has been reported.

Earthquake Activity

City Distance Mag. Time & Date
No recent earthquake activity has been reported nearby.
Minimum magnitude displayed is 2.5.

Coastal Water Temperatures

Place Temperature
No Stations Reporting

Nearby Weather Stations